Date,TemperatureHighF,TemperatureAvgF,TemperatureLowF,DewpointHighF,DewpointAvgF,DewpointLowF,HumidityHigh,HumidityAvg,HumidityLow,PressureMaxIn,PressureMinIn,WindSpeedMaxMPH,WindSpeedAvgMPH,GustSpeedMaxMPH,PrecipitationSumIn
2013-1-1,13,7,2,-100,-100,-100,0,0,100,0.00,40.00,0,-999,0,0.00
2013-1-2,3,1,-2,-100,-100,-100,0,0,100,0.00,40.00,0,-999,0,0.00
2013-1-3,23,8,-6,-100,-100,-100,0,0,100,0.00,40.00,0,-999,0,0.00
2013-1-4,20,8,-2,-100,-100,-100,0,0,100,0.00,40.00,0,-999,0,0.00
2013-1-5,22,10,-3,-100,-100,-100,0,0,100,0.00,40.00,0,-999,0,0.00
2013-1-6,26,17,4,-100,-100,-100,0,0,100,0.00,40.00,0,-999,0,0.01
2013-1-7,18,16,14,-100,-100,-100,0,0,100,0.00,40.00,0,-999,0,0.01
2013-1-8,24,20,17,-100,-100,-100,0,0,100,0.00,40.00,0,-999,0,0.01
2013-1-9,33,28,25,-100,-100,-100,0,0,100,0.00,40.00,0,-999,0,0.01
2013-1-10,31,26,11,-100,-100,-100,0,0,100,0.00,40.00,0,-999,0,0.02
2013-1-11,10,2,-5,-100,-100,-100,0,0,100,0.00,40.00,0,-999,0,0.01
2013-1-12,7,-3,-16,-100,-100,-100,0,0,100,0.00,40.00,0,-999,0,0.00
2013-1-13,5,-9,-22,-100,-100,-100,0,0,100,0.00,40.00,0,-999,0,0.00
2013-1-14,-1,-7,-16,-100,-100,-100,0,0,100,0.00,40.00,0,-999,0,0.00
2013-1-15,8,1,-7,-100,-100,-100,0,0,100,0.00,40.00,0,-999,0,0.00
2013-1-16,16,8,2,-100,-100,-100,0,0,100,0.00,40.00,0,-999,0,0.00
2013-1-17,26,10,-5,-100,-100,-100,0,0,100,0.00,40.00,0,-999,0,0.00
2013-1-18,25,17,13,-100,-100,-100,0,0,100,0.00,40.00,0,-999,0,0.00
2013-1-19,25,15,5,-100,-100,-100,0,0,100,0.00,40.00,0,-999,0,0.00
2013-1-20,28,19,8,-100,-100,-100,0,0,100,0.00,40.00,0,-999,0,0.00
2013-1-21,30,20,12,-100,-100,-100,0,0,100,0.00,40.00,0,-999,0,0.00
2013-1-22,32,21,9,-100,-100,-100,0,0,100,0.00,40.00,0,-999,0,0.00
2013-1-23,25,21,18,-100,-100,-100,0,0,100,0.00,40.00,0,-999,0,0.00
2013-1-27,26,26,26,-100,-100,-100,0,0,100,0.00,40.00,0,-999,0,0.00
2013-1-29,12,12,12,-100,-100,-100,0,0,100,0.00,40.00,0,-999,0,0.00
2013-1-30,16,14,12,-100,-100,-100,0,0,100,0.00,40.00,0,-999,0,0.00
2013-1-31,25,25,25,-100,-100,-100,0,0,100,0.00,40.00,0,-999,0,0.00
2013-2-2,25,23,22,-100,-100,-100,0,0,100,0.00,40.00,0,-999,0,0.00
2013-2-3,27,25,20,-100,-100,-100,0,0,100,0.00,40.00,0,-999,0,0.00
2013-2-4,24,23,21,-100,-100,-100,0,0,100,0.00,40.00,0,-999,0,0.00
2013-2-5,32,27,25,-100,-100,-100,0,0,100,0.00,40.00,0,-999,0,0.00
2013-2-6,24,24,24,-100,-100,-100,0,0,100,0.00,40.00,0,-999,0,0.00
2013-2-7,30,23,20,-100,-100,-100,0,0,100,0.00,40.00,0,-999,0,0.00
2013-2-8,27,20,15,-100,-100,-100,0,0,100,0.00,40.00,0,-999,0,0.00
2013-2-9,30,19,13,-100,-100,-100,0,0,100,0.00,40.00,0,-999,0,0.00
2013-2-10,20,14,6,-100,-100,-100,0,0,100,0.00,40.00,0,-999,0,0.00
2013-2-11,21,11,1,-100,-100,-100,0,0,100,0.00,40.00,0,-999,0,0.00
2013-2-12,20,16,11,-100,-100,-100,0,0,100,0.00,40.00,0,-999,0,0.00
2013-2-13,23,23,22,-100,-100,-100,0,0,100,0.00,40.00,0,-999,0,0.00
2013-2-14,23,19,12,-100,-100,-100,0,0,100,0.00,40.00,0,-999,0,0.00
2013-2-15,23,22,21,-100,-100,-100,0,0,100,0.00,40.00,0,-999,0,0.00
2013-2-16,27,25,23,-100,-100,-100,0,0,100,0.00,40.00,0,-999,0,0.00
2013-2-17,25,22,18,-100,-100,-100,0,0,100,0.00,40.00,0,-999,0,0.00
2013-2-18,28,20,9,-100,-100,-100,0,0,100,0.00,40.00,0,-999,0,0.00
2013-2-19,28,9,2,-100,-100,-100,0,0,100,0.00,40.00,0,-999,0,0.00
2013-2-20,31,23,13,-100,-100,-100,0,0,100,0.00,40.00,0,-999,0,0.00
2013-2-21,25,15,5,-100,-100,-100,0,0,100,0.00,40.00,0,-999,0,0.00
2013-2-22,19,17,15,-100,-100,-100,0,0,100,0.00,40.00,0,-999,0,0.00
2013-2-23,21,21,21,-100,-100,-100,0,0,100,0.00,40.00,0,-999,0,0.00
2013-2-26,23,20,18,-100,-100,-100,0,0,100,0.00,40.00,0,-999,0,0.00
2013-2-27,21,16,14,-100,-100,-100,0,0,100,0.00,40.00,0,-999,0,0.00
2013-2-28,24,18,14,-100,-100,-100,0,0,100,0.00,40.00,0,-999,0,0.01
2013-3-1,29,26,21,-100,-100,-100,0,0,100,0.00,40.00,0,-999,0,0.00
2013-3-2,34,32,29,-100,-100,-100,0,0,100,0.00,40.00,0,-999,0,0.00
2013-3-3,32,27,9,-100,-100,-100,0,0,100,0.00,40.00,0,-999,0,0.02
2013-3-4,18,9,-1,-100,-100,-100,0,0,100,0.00,40.00,0,-999,0,0.00
2013-3-5,31,19,7,-100,-100,-100,0,0,100,0.00,40.00,0,-999,0,0.01
2013-3-6,32,26,14,-100,-100,-100,0,0,100,0.00,40.00,0,-999,0,0.03
2013-3-7,36,27,21,-100,-100,-100,0,0,100,0.00,40.00,0,-999,0,0.02
2013-3-8,37,31,24,-100,-100,-100,0,0,100,0.00,40.00,0,-999,0,0.01
2013-3-9,35,25,16,-100,-100,-100,0,0,100,0.00,40.00,0,-999,0,0.00
2013-3-10,38,28,12,-100,-100,-100,0,0,100,0.00,40.00,0,-999,0,0.00
2013-3-11,39,29,20,-100,-100,-100,0,0,100,0.00,40.00,0,-999,0,0.01
2013-3-12,35,26,16,-100,-100,-100,0,0,100,0.00,40.00,0,-999,0,0.00
2013-3-13,45,37,32,-100,-100,-100,0,0,100,0.00,40.00,0,-999,0,0.01
2013-3-14,51,40,34,-100,-100,-100,0,0,100,0.00,40.00,0,-999,0,0.00
2013-3-15,49,40,33,-100,-100,-100,0,0,100,0.00,40.00,0,-999,0,0.00
2013-3-16,44,34,27,-100,-100,-100,0,0,100,0.00,40.00,0,-999,0,0.00
2013-3-17,31,24,14,-100,-100,-100,0,0,100,0.00,40.00,0,-999,0,0.01
2013-3-18,27,18,9,-100,-100,-100,0,0,100,0.00,40.00,0,-999,0,0.00
2013-3-19,37,23,11,-100,-100,-100,0,0,100,0.00,40.00,0,-999,0,0.00
2013-3-20,35,30,21,-100,-100,-100,0,0,100,0.00,40.00,0,-999,0,0.02
2013-3-21,32,25,16,-100,-100,-100,0,0,100,0.00,40.00,0,-999,0,0.02
2013-3-22,26,16,5,-100,-100,-100,0,0,100,0.00,40.00,0,-999,0,0.00
2013-3-23,28,11,-5,-100,-100,-100,0,0,100,0.00,40.00,0,-999,0,0.00
2013-3-24,31,10,-11,-100,-100,-100,0,0,100,0.00,40.00,0,-999,0,0.00
2013-3-25,34,15,-6,-100,-100,-100,0,0,100,0.00,40.00,0,-999,0,0.00
2013-3-26,46,28,14,-100,-100,-100,0,0,100,0.00,40.00,0,-999,0,0.01
2013-3-27,41,32,26,-100,-100,-100,0,0,100,0.00,40.00,0,-999,0,0.01
2013-3-28,51,35,21,-100,-100,-100,0,0,100,0.00,40.00,0,-999,0,0.00
2013-3-29,47,37,29,-100,-100,-100,0,0,100,0.00,40.00,0,-999,0,0.00
2013-3-30,48,36,28,-100,-100,-100,0,0,100,0.00,40.00,0,-999,0,0.00
2013-3-31,54,40,30,-100,-100,-100,0,0,100,0.00,40.00,0,-999,0,0.00
2013-4-1,55,38,24,-100,-100,-100,0,0,100,0.00,40.00,0,-999,0,0.00
2013-4-2,57,40,24,-100,-100,-100,0,0,100,0.00,40.00,0,-999,0,0.00
2013-4-3,53,41,34,-100,-100,-100,0,0,100,0.00,40.00,0,-999,0,0.00
2013-4-4,52,42,33,-100,-100,-100,0,0,100,0.00,40.00,0,-999,0,0.00
2013-4-5,41,36,34,-100,-100,-100,0,0,100,0.00,40.00,0,-999,0,0.02
2013-4-6,38,34,31,-100,-100,-100,0,0,100,0.00,40.00,0,-999,0,0.02
2013-4-7,35,32,30,-100,-100,-100,0,0,100,0.00,40.00,0,-999,0,0.03
2013-4-8,31,26,19,-100,-100,-100,0,0,100,0.00,40.00,0,-999,0,0.01
2013-4-9,34,28,19,-100,-100,-100,0,0,100,0.00,40.00,0,-999,0,0.00
2013-4-10,43,21,6,-100,-100,-100,0,0,100,0.00,40.00,0,-999,0,0.00
2013-4-11,46,38,26,-100,-100,-100,0,0,100,0.00,40.00,0,-999,0,0.01
2013-4-12,44,32,20,-100,-100,-100,0,0,100,0.00,40.00,0,-999,0,0.00
2013-4-13,39,31,20,-100,-100,-100,0,0,100,0.00,40.00,0,-999,0,0.01
2013-4-14,36,24,16,-100,-100,-100,0,0,100,0.00,40.00,0,-999,0,0.01
2013-4-15,33,22,11,-100,-100,-100,0,0,100,0.00,40.00,0,-999,0,0.00
2013-4-16,27,18,7,-100,-100,-100,0,0,100,0.00,40.00,0,-999,0,0.00
2013-4-17,31,17,3,-100,-100,-100,0,0,100,0.00,40.00,0,-999,0,0.00
2013-4-18,40,22,4,-100,-100,-100,0,0,100,0.00,40.00,0,-999,0,0.01
2013-4-19,35,31,26,-100,-100,-100,0,0,100,0.00,40.00,0,-999,0,0.01
2013-4-20,45,35,30,-100,-100,-100,0,0,100,0.00,40.00,0,-999,0,0.01
2013-4-21,42,34,29,-100,-100,-100,0,0,100,0.00,40.00,0,-999,0,0.00
2013-4-22,30,24,14,-100,-100,-100,0,0,100,0.00,40.00,0,-999,0,0.00
2013-4-23,39,19,1,-100,-100,-100,0,0,100,0.00,40.00,0,-999,0,0.00
2013-4-24,45,40,33,-100,-100,-100,0,0,100,0.00,40.00,0,-999,0,0.00
2013-4-25,50,39,31,-100,-100,-100,0,0,100,0.00,40.00,0,-999,0,0.00
2013-4-26,56,42,27,-100,-100,-100,0,0,100,0.00,40.00,0,-999,0,0.00
2013-4-27,57,47,36,-100,-100,-100,0,0,100,0.00,40.00,0,-999,0,0.00
2013-4-28,52,42,38,-100,-100,-100,0,0,100,0.00,40.00,0,-999,0,0.00
2013-4-29,44,38,29,-100,-100,-100,0,0,100,0.00,40.00,0,-999,0,0.00
2013-4-30,36,30,19,-100,-100,-100,0,0,100,0.00,40.00,0,-999,0,0.00
2013-5-1,38,28,21,-100,-100,-100,0,0,100,0.00,40.00,0,-999,0,0.00
2013-5-2,47,33,16,-100,-100,-100,0,0,100,0.00,40.00,0,-999,0,0.00
2013-5-3,54,41,31,-100,-100,-100,0,0,100,0.00,40.00,0,-999,0,0.01
2013-5-4,47,39,33,-100,-100,-100,0,0,100,0.00,40.00,0,-999,0,0.00
2013-5-5,56,42,33,-100,-100,-100,0,0,100,0.00,40.00,0,-999,0,0.00
2013-5-6,62,45,31,-100,-100,-100,0,0,100,0.00,40.00,0,-999,0,0.00
2013-5-7,59,45,34,-100,-100,-100,0,0,100,0.00,40.00,0,-999,0,0.00
2013-5-8,60,46,33,-100,-100,-100,0,0,100,0.00,40.00,0,-999,0,0.00
2013-5-9,60,45,32,-100,-100,-100,0,0,100,0.00,40.00,0,-999,0,0.00
2013-5-10,61,44,31,-100,-100,-100,0,0,100,0.00,40.00,0,-999,0,0.00
2013-5-11,59,46,32,-100,-100,-100,0,0,100,0.00,40.00,0,-999,0,0.00
2013-5-12,66,52,38,-100,-100,-100,0,0,100,0.00,40.00,0,-999,0,0.00
2013-5-13,67,56,46,-100,-100,-100,0,0,100,0.00,40.00,0,-999,0,0.00
2013-5-14,62,53,42,-100,-100,-100,0,0,100,0.00,40.00,0,-999,0,0.00
2013-5-15,64,46,32,-100,-100,-100,0,0,100,0.00,40.00,0,-999,0,0.00
2013-5-16,57,43,35,-100,-100,-100,0,0,100,0.00,40.00,0,-999,0,0.00
2013-5-17,44,41,38,-100,-100,-100,0,0,100,0.00,40.00,0,-999,0,0.01
2013-5-18,47,40,35,-100,-100,-100,0,0,100,0.00,40.00,0,-999,0,0.02
2013-5-19,45,38,35,-100,-100,-100,0,0,100,0.00,40.00,0,-999,0,0.02
2013-5-20,48,41,36,-100,-100,-100,0,0,100,0.00,40.00,0,-999,0,0.01
2013-5-21,56,43,31,-100,-100,-100,0,0,100,0.00,40.00,0,-999,0,0.01
2013-5-22,61,47,37,-100,-100,-100,0,0,100,0.00,40.00,0,-999,0,0.00
2013-5-23,55,43,33,-100,-100,-100,0,0,100,0.00,40.00,0,-999,0,0.00
2013-5-24,52,40,30,-100,-100,-100,0,0,100,0.00,40.00,0,-999,0,0.01
2013-5-25,58,46,31,-100,-100,-100,0,0,100,0.00,40.00,0,-999,0,0.00
2013-5-26,60,46,32,-100,-100,-100,0,0,100,0.00,40.00,0,-999,0,0.00
2013-5-27,50,42,36,-100,-100,-100,0,0,100,0.00,40.00,0,-999,0,0.00
2013-5-28,50,42,37,-100,-100,-100,0,0,100,0.00,40.00,0,-999,0,0.00
2013-5-29,47,40,38,-100,-100,-100,0,0,100,0.00,40.00,0,-999,0,0.01
2013-5-30,49,40,34,-100,-100,-100,0,0,100,0.00,40.00,0,-999,0,0.01
2013-5-31,50,40,30,-100,-100,-100,0,0,100,0.00,40.00,0,-999,0,0.00
2013-6-1,61,45,29,-100,-100,-100,0,0,100,0.00,40.00,0,-999,0,0.00
2013-6-2,64,52,36,-100,-100,-100,0,0,100,0.00,40.00,0,-999,0,0.00
2013-6-3,54,42,32,-100,-100,-100,0,0,100,0.00,40.00,0,-999,0,0.00
2013-6-4,52,44,35,-100,-100,-100,0,0,100,0.00,40.00,0,-999,0,0.01
2013-6-5,64,47,29,-100,-100,-100,0,0,100,0.00,40.00,0,-999,0,0.00
2013-6-6,68,54,38,-100,-100,-100,0,0,100,0.00,40.00,0,-999,0,0.00
2013-6-7,68,55,43,-100,-100,-100,0,0,100,0.00,40.00,0,-999,0,0.00
2013-6-8,69,56,40,-100,-100,-100,0,0,100,0.00,40.00,0,-999,0,0.00
2013-6-9,71,59,44,-100,-100,-100,0,0,100,0.00,40.00,0,-999,0,0.00
2013-6-10,76,63,52,-100,-100,-100,0,0,100,0.00,40.00,0,-999,0,0.00
2013-6-11,67,56,43,-100,-100,-100,0,0,100,0.00,40.00,0,-999,0,0.00
2013-6-12,62,52,45,-100,-100,-100,0,0,100,0.00,40.00,0,-999,0,0.01
2013-6-13,65,51,39,-100,-100,-100,0,0,100,0.00,40.00,0,-999,0,0.01
2013-6-14,47,38,33,-100,-100,-100,0,0,100,0.00,40.00,0,-999,0,0.02
2013-6-15,63,48,31,-100,-100,-100,0,0,100,0.00,40.00,0,-999,0,0.01
2013-6-16,71,53,32,-100,-100,-100,0,0,100,0.00,40.00,0,-999,0,0.00
2013-6-17,72,59,38,-100,-100,-100,0,0,100,0.00,40.00,0,-999,0,0.00
2013-6-18,75,60,42,-100,-100,-100,0,0,100,0.00,40.00,0,-999,0,0.00
2013-6-19,65,52,38,-100,-100,-100,0,0,100,0.00,40.00,0,-999,0,0.00
2013-6-20,49,37,34,-100,-100,-100,0,0,100,0.00,40.00,0,-999,0,0.01
2013-6-23,53,53,53,-100,-100,-100,0,0,100,0.00,40.00,0,-999,0,0.00
2013-6-24,65,58,45,-100,-100,-100,0,0,100,0.00,40.00,0,-999,0,0.00
2013-6-25,58,48,44,-100,-100,-100,0,0,100,0.00,40.00,0,-999,0,0.02
2013-6-26,64,55,47,-100,-100,-100,0,0,100,0.00,40.00,0,-999,0,0.01
2013-6-27,77,60,45,-100,-100,-100,0,0,100,0.00,40.00,0,-999,0,0.00
2013-6-28,81,66,46,-100,-100,-100,0,0,100,0.00,40.00,0,-999,0,0.00
2013-6-29,83,62,50,-100,-100,-100,0,0,100,0.00,40.00,0,-999,0,0.01
2013-6-30,78,63,45,-100,-100,-100,0,0,100,0.00,40.00,0,-999,0,0.01
2013-7-1,81,64,50,-100,-100,-100,0,0,100,0.00,40.00,0,-999,0,0.00
2013-7-2,85,64,48,-100,-100,-100,0,0,100,0.00,40.00,0,-999,0,0.00
2013-7-3,81,66,51,-100,-100,-100,0,0,100,0.00,40.00,0,-999,0,0.00
2013-7-4,79,62,50,-100,-100,-100,0,0,100,0.00,40.00,0,-999,0,0.00
2013-7-5,70,57,47,-100,-100,-100,0,0,100,0.00,40.00,0,-999,0,0.02
2013-7-6,71,53,43,-100,-100,-100,0,0,100,0.00,40.00,0,-999,0,0.02
2013-7-7,74,60,43,-100,-100,-100,0,0,100,0.00,40.00,0,-999,0,0.02
2013-7-8,72,55,44,-100,-100,-100,0,0,100,0.00,40.00,0,-999,0,0.00
2013-7-9,75,60,44,-100,-100,-100,0,0,100,0.00,40.00,0,-999,0,0.00
2013-7-10,81,65,46,-100,-100,-100,0,0,100,0.00,40.00,0,-999,0,0.00
2013-7-11,73,60,50,-100,-100,-100,0,0,100,0.00,40.00,0,-999,0,0.01
2013-7-12,72,58,47,-100,-100,-100,0,0,100,0.00,40.00,0,-999,0,0.01
2013-7-13,73,62,46,-100,-100,-100,0,0,100,0.00,40.00,0,-999,0,0.00
2013-7-14,75,62,45,-100,-100,-100,0,0,100,0.00,40.00,0,-999,0,0.00
2013-7-15,79,60,48,-100,-100,-100,0,0,100,0.00,40.00,0,-999,0,0.00
2013-7-16,71,58,47,-100,-100,-100,0,0,100,0.00,40.00,0,-999,0,0.01
2013-7-17,77,62,51,-100,-100,-100,0,0,100,0.00,40.00,0,-999,0,0.01
2013-7-18,77,64,47,-100,-100,-100,0,0,100,0.00,40.00,0,-999,0,0.00
2013-7-19,78,60,45,-100,-100,-100,0,0,100,0.00,40.00,0,-999,0,0.00
2013-7-20,79,63,46,-100,-100,-100,0,0,100,0.00,40.00,0,-999,0,0.00
2013-7-21,79,62,44,-100,-100,-100,0,0,100,0.00,40.00,0,-999,0,0.00
2013-7-22,78,64,51,-100,-100,-100,0,0,100,0.00,40.00,0,-999,0,0.00
2013-7-23,80,62,45,-100,-100,-100,0,0,100,0.00,40.00,0,-999,0,0.00
2013-7-24,82,66,50,-100,-100,-100,0,0,100,0.00,40.00,0,-999,0,0.01
2013-7-25,78,62,47,-100,-100,-100,0,0,100,0.00,40.00,0,-999,0,0.00
2013-7-26,81,61,45,-100,-100,-100,0,0,100,0.00,40.00,0,-999,0,0.00
2013-7-27,65,57,48,-100,-100,-100,0,0,100,0.00,40.00,0,-999,0,0.00
2013-7-28,70,55,42,-100,-100,-100,0,0,100,0.00,40.00,0,-999,0,0.00
2013-7-29,70,56,41,-100,-100,-100,0,0,100,0.00,40.00,0,-999,0,0.00
2013-7-30,69,53,41,-100,-100,-100,0,0,100,0.00,40.00,0,-999,0,0.01
2013-7-31,77,58,41,-100,-100,-100,0,0,100,0.00,40.00,0,-999,0,0.01
2013-8-1,77,63,47,-100,-100,-100,0,0,100,0.00,40.00,0,-999,0,0.00
2013-8-2,66,57,46,-100,-100,-100,0,0,100,0.00,40.00,0,-999,0,0.00
2013-8-3,72,58,39,-100,-100,-100,0,0,100,0.00,40.00,0,-999,0,0.00
2013-8-4,77,62,41,-100,-100,-100,0,0,100,0.00,40.00,0,-999,0,0.00
2013-8-5,79,60,42,-100,-100,-100,0,0,100,0.00,40.00,0,-999,0,0.00
2013-8-6,74,60,45,-100,-100,-100,0,0,100,0.00,40.00,0,-999,0,0.00
2013-8-7,76,58,41,-100,-100,-100,0,0,100,0.00,40.00,0,-999,0,0.00
2013-8-8,78,58,44,-100,-100,-100,0,0,100,0.00,40.00,0,-999,0,0.00
2013-8-9,70,56,44,-100,-100,-100,0,0,100,0.00,40.00,0,-999,0,0.00
2013-8-10,77,61,42,-100,-100,-100,0,0,100,0.00,40.00,0,-999,0,0.00
2013-8-11,76,60,43,-100,-100,-100,0,0,100,0.00,40.00,0,-999,0,0.00
2013-8-12,74,58,41,-100,-100,-100,0,0,100,0.00,40.00,0,-999,0,0.00
2013-8-13,74,57,41,-100,-100,-100,0,0,100,0.00,40.00,0,-999,0,0.00
2013-8-14,75,55,39,-100,-100,-100,0,0,100,0.00,40.00,0,-999,0,0.00
2013-8-15,81,60,43,-100,-100,-100,0,0,100,0.00,40.00,0,-999,0,0.00
2013-8-16,83,68,49,-100,-100,-100,0,0,100,0.00,40.00,0,-999,0,0.00
2013-8-17,63,61,58,-100,-100,-100,0,0,100,0.00,40.00,0,-999,0,0.00
2013-8-18,78,72,60,-100,-100,-100,0,0,100,0.00,40.00,0,-999,0,0.00
2013-8-19,79,66,56,-100,-100,-100,0,0,100,0.00,40.00,0,-999,0,0.00
2013-8-20,79,67,52,-100,-100,-100,0,0,100,0.00,40.00,0,-999,0,0.00
2013-8-21,72,60,50,-100,-100,-100,0,0,100,0.00,40.00,0,-999,0,0.00
2013-8-22,75,61,44,-100,-100,-100,0,0,100,0.00,40.00,0,-999,0,0.00
2013-8-23,75,62,50,-100,-100,-100,0,0,100,0.00,40.00,0,-999,0,0.00
2013-8-24,69,59,49,-100,-100,-100,0,0,100,0.00,40.00,0,-999,0,0.00
2013-8-25,74,60,43,-100,-100,-100,0,0,100,0.00,40.00,0,-999,0,0.00
2013-8-26,66,56,46,-100,-100,-100,0,0,100,0.00,40.00,0,-999,0,0.00
2013-8-27,67,57,47,-100,-100,-100,0,0,100,0.00,40.00,0,-999,0,0.00
2013-8-28,72,68,63,-100,-100,-100,0,0,100,0.00,40.00,0,-999,0,0.00
2013-8-29,75,58,44,-100,-100,-100,0,0,100,0.00,40.00,0,-999,0,0.00
2013-8-30,76,65,52,-100,-100,-100,0,0,100,0.00,40.00,0,-999,0,0.00
2013-8-31,74,59,43,-100,-100,-100,0,0,100,0.00,40.00,0,-999,0,0.00
2013-9-1,79,61,42,-100,-100,-100,0,0,100,0.00,40.00,0,-999,0,0.00
2013-9-2,62,54,47,-100,-100,-100,0,0,100,0.00,40.00,0,-999,0,0.01
2013-9-3,73,58,49,-100,-100,-100,0,0,100,0.00,40.00,0,-999,0,0.00
2013-9-4,72,59,52,-100,-100,-100,0,0,100,0.00,40.00,0,-999,0,0.00
2013-9-5,74,58,47,-100,-100,-100,0,0,100,0.00,40.00,0,-999,0,0.00
2013-9-6,72,57,47,-100,-100,-100,0,0,100,0.00,40.00,0,-999,0,0.02
2013-9-7,69,57,48,-100,-100,-100,0,0,100,0.00,40.00,0,-999,0,0.01
2013-9-8,63,53,46,-100,-100,-100,0,0,100,0.00,40.00,0,-999,0,0.01
2013-9-9,59,50,44,-100,-100,-100,0,0,100,0.00,40.00,0,-999,0,0.01
2013-9-10,66,50,38,-100,-100,-100,0,0,100,0.00,40.00,0,-999,0,0.00
2013-9-11,71,60,46,-100,-100,-100,0,0,100,0.00,40.00,0,-999,0,0.00
2013-9-12,55,51,48,-100,-100,-100,0,0,100,0.00,40.00,0,-999,0,0.01
2013-9-13,65,50,41,-100,-100,-100,0,0,100,0.00,40.00,0,-999,0,0.00
2013-9-14,54,49,45,-100,-100,-100,0,0,100,0.00,40.00,0,-999,0,0.01
2013-9-17,55,48,40,-100,-100,-100,0,0,100,0.00,40.00,0,-999,0,0.06
2013-9-18,43,39,34,-100,-100,-100,0,0,100,0.00,40.00,0,-999,0,0.02
2013-9-19,49,38,31,-100,-100,-100,0,0,100,0.00,40.00,0,-999,0,0.01
2013-9-20,59,43,29,-100,-100,-100,0,0,100,0.00,40.00,0,-999,0,0.00
2013-9-21,62,48,37,-100,-100,-100,0,0,100,0.00,40.00,0,-999,0,0.00
2013-9-22,54,48,41,-100,-100,-100,0,0,100,0.00,40.00,0,-999,0,0.00
2013-9-23,50,40,35,-100,-100,-100,0,0,100,0.00,40.00,0,-999,0,0.02
2013-9-24,54,44,36,-100,-100,-100,0,0,100,0.00,40.00,0,-999,0,0.01
2013-9-25,41,37,32,-100,-100,-100,0,0,100,0.00,40.00,0,-999,0,0.01
2013-9-26,38,33,31,-100,-100,-100,0,0,100,0.00,40.00,0,-999,0,0.01
2013-9-27,38,32,29,-100,-100,-100,0,0,100,0.00,40.00,0,-999,0,0.01
2013-10-2,47,39,29,-100,-100,-100,0,0,100,0.00,40.00,0,-999,0,0.00
2013-10-3,36,31,27,-100,-100,-100,0,0,100,0.00,40.00,0,-999,0,0.04
2013-10-4,34,27,23,-100,-100,-100,0,0,100,0.00,40.00,0,-999,0,0.01
2013-10-5,43,30,17,-100,-100,-100,0,0,100,0.00,40.00,0,-999,0,0.00
2013-10-6,51,37,25,-100,-100,-100,0,0,100,0.00,40.00,0,-999,0,0.00
2013-10-7,54,41,29,-100,-100,-100,0,0,100,0.00,40.00,0,-999,0,0.00
2013-10-8,43,39,30,-100,-100,-100,0,0,100,0.00,40.00,0,-999,0,0.00
2013-10-9,45,33,27,-100,-100,-100,0,0,100,0.00,40.00,0,-999,0,0.01
2013-10-10,50,37,31,-100,-100,-100,0,0,100,0.00,40.00,0,-999,0,0.01
2013-10-11,43,35,29,-100,-100,-100,0,0,100,0.00,40.00,0,-999,0,0.00
2013-10-12,37,32,29,-100,-100,-100,0,0,100,0.00,40.00,0,-999,0,0.01
2013-10-13,35,32,31,-100,-100,-100,0,0,100,0.00,40.00,0,-999,0,0.02
2013-10-21,37,36,35,-100,-100,-100,0,0,100,0.00,40.00,0,-999,0,0.00
2013-10-22,52,39,31,-100,-100,-100,0,0,100,0.00,40.00,0,-999,0,0.00
2013-10-23,29,28,28,-100,-100,-100,0,0,100,0.00,40.00,0,-999,0,0.00
2013-10-24,53,52,52,-100,-100,-100,0,0,100,0.00,40.00,0,-999,0,0.00
2013-10-25,31,31,31,-100,-100,-100,0,0,100,0.00,40.00,0,-999,0,0.00
2013-10-26,30,29,28,-100,-100,-100,0,0,100,0.00,40.00,0,-999,0,0.00
2013-10-27,42,41,40,-100,-100,-100,0,0,100,0.00,40.00,0,-999,0,0.00
2013-11-13,39,36,35,-100,-100,-100,0,0,100,0.00,40.00,0,-999,0,0.00
2013-11-14,29,26,24,-100,-100,-100,0,0,100,0.00,40.00,0,-999,0,0.00
2013-11-15,23,23,23,-100,-100,-100,0,0,100,0.00,40.00,0,-999,0,0.00
2013-11-16,23,23,23,-100,-100,-100,0,0,100,0.00,40.00,0,-999,0,0.00
2013-11-17,24,24,24,-100,-100,-100,0,0,100,0.00,40.00,0,-999,0,0.00
2013-11-18,33,29,26,-100,-100,-100,0,0,100,0.00,40.00,0,-999,0,0.00
2013-11-19,33,32,31,-100,-100,-100,0,0,100,0.00,40.00,0,-999,0,0.01
2013-11-20,32,27,14,-100,-100,-100,0,0,100,0.00,40.00,0,-999,0,0.04
2013-11-21,15,12,10,-100,-100,-100,0,0,100,0.00,40.00,0,-999,0,0.00
2013-11-22,12,2,-8,-100,-100,-100,0,0,100,0.00,40.00,0,-999,0,0.00
2013-11-23,4,4,4,-100,-100,-100,0,0,100,0.00,40.00,0,-999,0,0.00
2013-11-24,23,19,7,-100,-100,-100,0,0,100,0.00,40.00,0,-999,0,0.00
2013-11-25,17,16,16,-100,-100,-100,0,0,100,0.00,40.00,0,-999,0,0.00
2013-11-26,28,18,15,-100,-100,-100,0,0,100,0.00,40.00,0,-999,0,0.00
2013-11-27,38,31,26,-100,-100,-100,0,0,100,0.00,40.00,0,-999,0,0.00
2013-11-28,40,25,18,-100,-100,-100,0,0,100,0.00,40.00,0,-999,0,0.00
2013-11-29,29,29,29,-100,-100,-100,0,0,100,0.00,40.00,0,-999,0,0.00
2013-11-30,30,29,28,-100,-100,-100,0,0,100,0.00,40.00,0,-999,0,0.00
2013-12-1,30,28,27,-100,-100,-100,0,0,100,0.00,40.00,0,-999,0,0.00
2013-12-2,32,30,23,-100,-100,-100,0,0,100,0.00,40.00,0,-999,0,0.03
2013-12-3,1,-2,-8,-100,-100,-100,0,0,100,0.00,40.00,0,-999,0,0.00
2013-12-4,1,-11,-19,-100,-100,-100,0,0,100,0.00,40.00,0,-999,0,0.00
2013-12-5,-15,-20,-24,-100,-100,-100,0,0,100,0.00,40.00,0,-999,0,0.00
2013-12-6,-9,-19,-26,-100,-100,-100,0,0,100,0.00,40.00,0,-999,0,0.00
2013-12-7,6,-4,-10,-100,-100,-100,0,0,100,0.00,40.00,0,-999,0,0.01
2013-12-8,-3,-7,-11,-100,-100,-100,0,0,100,0.00,40.00,0,-999,0,0.00
2013-12-9,-2,-7,-15,-100,-100,-100,0,0,100,0.00,40.00,0,-999,0,0.00
2013-12-10,7,3,-1,-100,-100,-100,0,0,100,0.00,40.00,0,-999,0,0.01
2013-12-11,14,11,7,-100,-100,-100,0,0,100,0.00,40.00,0,-999,0,0.00
2013-12-12,16,11,7,-100,-100,-100,0,0,100,0.00,40.00,0,-999,0,0.00
2013-12-13,23,20,18,-100,-100,-100,0,0,100,0.00,40.00,0,-999,0,0.00
2013-12-14,20,18,17,-100,-100,-100,0,0,100,0.00,40.00,0,-999,0,0.00
2013-12-15,23,22,21,-100,-100,-100,0,0,100,0.00,40.00,0,-999,0,0.00
2013-12-16,27,24,21,-100,-100,-100,0,0,100,0.00,40.00,0,-999,0,0.00
2013-12-17,27,24,21,-100,-100,-100,0,0,100,0.00,40.00,0,-999,0,0.00
2013-12-18,28,26,25,-100,-100,-100,0,0,100,0.00,40.00,0,-999,0,0.00
2013-12-19,23,20,14,-100,-100,-100,0,0,100,0.00,40.00,0,-999,0,0.00
2013-12-20,2,2,2,-100,-100,-100,0,0,100,0.00,40.00,0,-999,0,0.00
2013-12-21,17,14,12,-100,-100,-100,0,0,100,0.00,40.00,0,-999,0,0.01
2013-12-22,21,18,15,-100,-100,-100,0,0,100,0.00,40.00,0,-999,0,0.00
2013-12-23,27,22,16,-100,-100,-100,0,0,100,0.00,40.00,0,-999,0,0.00
2013-12-24,23,18,12,-100,-100,-100,0,0,100,0.00,40.00,0,-999,0,0.00
2013-12-25,19,17,16,-100,-100,-100,0,0,100,0.00,40.00,0,-999,0,0.00
2013-12-26,28,21,17,-100,-100,-100,0,0,100,0.00,40.00,0,-999,0,0.00
2013-12-27,8,8,8,-100,-100,-100,0,0,100,0.00,40.00,0,-999,0,0.00
2013-12-28,21,21,21,-100,-100,-100,0,0,100,0.00,40.00,0,-999,0,0.00
2013-12-29,11,11,11,-100,-100,-100,0,0,100,0.00,40.00,0,-999,0,0.00
2013-12-31,23,22,22,-100,-100,-100,0,0,100,0.00,40.00,0,-999,0,0.02
2014-1-1,24,19,16,-100,-100,-100,0,0,100,0.00,40.00,0,-999,0,0.01
2014-1-2,25,22,20,-100,-100,-100,0,0,100,0.00,40.00,0,-999,0,0.00